Time;durP1;ratioP1;P1;durP2;ratioP2;P2;SDS_P1;SDS_P2;PMS_P1;PMS_P2;Temp;Humidity;BMP_temperature;BMP_pressure;BME280_temperature;BME280_humidity;BME280_pressure;Samples;Min_cycle;Max_cycle;Signal;HPM_P1;HPM_P2
2021/09/13 05:03:48;;;;;;;26.08;17.75;;;;;;;14.46;84.29;100166.75;5005211;28;106002;-67
2021/09/13 05:06:13;;;;;;;24.15;17.15;;;;;;;14.50;84.43;100173.38;5004085;28;106404;-67
2021/09/13 05:08:38;;;;;;;25.13;18.30;;;;;;;14.55;84.53;100165.56;5004285;28;106259;-66
2021/09/13 05:11:04;;;;;;;30.55;18.08;;;;;;;14.66;84.80;100174.09;5004397;28;109841;-66
2021/09/13 05:13:29;;;;;;;31.98;18.55;;;;;;;14.76;85.04;100169.19;5004159;28;106025;-67
2021/09/13 05:15:55;;;;;;;28.10;17.27;;;;;;;14.88;85.03;100167.66;5005595;28;106001;-68
2021/09/13 05:18:20;;;;;;;29.42;17.80;;;;;;;14.98;84.80;100169.94;5004850;28;106637;-68
2021/09/13 05:20:45;;;;;;;22.98;16.77;;;;;;;15.06;84.59;100166.25;5004629;28;106516;-68
2021/09/13 05:23:11;;;;;;;24.95;16.42;;;;;;;15.15;84.48;100170.41;5004273;28;106088;-67
2021/09/13 05:25:36;;;;;;;24.83;17.25;;;;;;;15.27;84.55;100170.69;5005502;28;106201;-67
2021/09/13 05:28:01;;;;;;;25.17;17.30;;;;;;;15.43;84.84;100177.50;5004458;28;106363;-67
2021/09/13 05:30:27;;;;;;;22.73;16.35;;;;;;;15.62;85.09;100177.78;5004332;28;105989;-66
2021/09/13 05:32:52;;;;;;;22.55;17.38;;;;;;;15.81;84.67;100187.75;5004028;28;105873;-67
2021/09/13 05:35:18;;;;;;;21.75;16.00;;;;;;;15.97;84.69;100174.97;5005230;28;105803;-67
2021/09/13 05:37:43;;;;;;;21.95;16.13;;;;;;;16.11;84.51;100186.53;5004482;28;106158;-67
2021/09/13 05:40:09;;;;;;;20.33;15.32;;;;;;;16.28;84.57;100185.09;5004123;28;106009;-67
2021/09/13 05:42:35;;;;;;;24.20;15.90;;;;;;;16.44;84.19;100186.50;5003842;28;106274;-67
2021/09/13 05:45:00;;;;;;;19.48;15.63;;;;;;;16.54;83.83;100186.91;5004240;28;106477;-67
2021/09/13 05:47:26;;;;;;;20.05;15.23;;;;;;;16.62;83.45;100183.19;5003828;28;106328;-67
2021/09/13 05:49:52;;;;;;;23.73;14.40;;;;;;;16.68;83.90;100187.69;5003305;28;106827;-67
2021/09/13 05:52:17;;;;;;;19.77;14.88;;;;;;;16.74;83.67;100194.94;5003136;28;105986;-67
2021/09/13 05:54:43;;;;;;;19.52;14.45;;;;;;;16.77;83.42;100190.97;5002474;28;106034;-67
2021/09/13 05:57:08;;;;;;;18.35;14.13;;;;;;;16.80;83.14;100189.72;5002683;28;106092;-67
2021/09/13 05:59:34;;;;;;;21.15;15.27;;;;;;;16.84;82.96;100197.19;5001857;28;106443;-67
2021/09/13 06:01:59;;;;;;;20.83;15.32;;;;;;;16.81;82.59;100197.59;5002540;28;106468;-68
2021/09/13 06:04:24;;;;;;;20.80;14.38;;;;;;;16.79;82.48;100197.00;5003453;28;105988;-68
2021/09/13 06:06:50;;;;;;;23.63;14.95;;;;;;;16.83;82.90;100194.72;5003943;28;106572;-70
2021/09/13 06:09:15;;;;;;;20.10;14.68;;;;;;;16.88;82.65;100193.03;5002628;28;105952;-69
2021/09/13 06:11:40;;;;;;;18.48;13.45;;;;;;;16.88;82.42;100198.41;5003291;28;106123;-69
2021/09/13 06:14:06;;;;;;;20.95;14.25;;;;;;;16.86;82.21;100194.28;4996126;28;105946;-69
2021/09/13 06:16:31;;;;;;;21.50;14.85;;;;;;;16.85;82.28;100192.63;4988736;28;106409;-68
2021/09/13 06:18:57;;;;;;;21.85;14.90;;;;;;;16.88;82.24;100186.81;4989933;28;105915;-67
2021/09/13 06:21:23;;;;;;;20.70;13.80;;;;;;;16.86;82.55;100195.09;4990036;28;106031;-68
2021/09/13 06:23:49;;;;;;;20.02;15.23;;;;;;;16.86;82.27;100188.91;4990690;28;105891;-69
2021/09/13 06:26:15;;;;;;;18.73;13.50;;;;;;;16.84;82.17;100196.34;4989912;28;106186;-68
2021/09/13 06:28:40;;;;;;;18.08;13.77;;;;;;;16.81;82.08;100192.22;4990049;28;105972;-70
2021/09/13 06:31:06;;;;;;;22.42;16.08;;;;;;;16.78;82.31;100192.63;4989889;28;105861;-69
2021/09/13 06:33:32;;;;;;;31.92;24.77;;;;;;;16.76;82.33;100200.09;4990973;28;105932;-71
2021/09/13 06:35:58;;;;;;;26.30;18.75;;;;;;;16.74;82.17;100197.63;4990328;28;105960;-70
2021/09/13 06:38:23;;;;;;;17.10;14.80;;;;;;;16.71;82.24;100203.41;4989503;28;105977;-69
2021/09/13 06:40:49;;;;;;;19.40;14.82;;;;;;;16.69;82.06;100204.66;4988360;28;106017;-68
2021/09/13 06:43:17;;;;;;;20.90;14.50;;;;;;;16.67;81.84;100212.13;4990480;28;106067;-69
2021/09/13 06:45:44;;;;;;;17.90;14.68;;;;;;;16.67;82.08;100207.56;4989893;28;106146;-71
2021/09/13 06:48:12;;;;;;;18.85;14.38;;;;;;;16.68;81.93;100214.59;4986068;27;106399;-69
2021/09/13 06:50:38;;;;;;;21.23;15.32;;;;;;;16.69;82.10;100216.25;4949997;28;105792;-69
2021/09/13 06:53:04;;;;;;;21.00;15.52;;;;;;;16.72;82.46;100215.03;4950880;28;105837;-71
2021/09/13 06:55:29;;;;;;;22.17;16.65;;;;;;;16.75;81.91;100211.91;4949096;28;106092;-71
2021/09/13 06:57:55;;;;;;;19.73;15.77;;;;;;;16.79;82.22;100215.81;4949901;28;106084;-71
2021/09/13 07:00:21;;;;;;;22.00;16.65;;;;;;;16.83;82.19;100222.44;4949845;28;105910;-69
2021/09/13 07:02:47;;;;;;;21.40;16.17;;;;;;;16.89;81.88;100221.63;4950272;28;106033;-68
2021/09/13 07:05:13;;;;;;;22.33;16.33;;;;;;;16.99;82.23;100225.72;4949943;28;106206;-68
2021/09/13 07:07:39;;;;;;;19.15;15.77;;;;;;;17.02;81.70;100228.00;4949968;28;106058;-70
2021/09/13 07:10:07;;;;;;;19.40;14.65;;;;;;;17.13;82.06;100231.88;4949438;28;106066;-69
2021/09/13 07:12:35;;;;;;;19.48;15.35;;;;;;;17.24;82.10;100228.56;4949736;28;105971;-69
2021/09/13 07:15:01;;;;;;;20.58;14.98;;;;;;;17.37;82.08;100230.34;4943713;28;106132;-70
2021/09/13 07:17:26;;;;;;;19.17;14.10;;;;;;;17.49;81.61;100225.94;4940246;28;105974;-69
2021/09/13 07:19:52;;;;;;;20.10;13.85;;;;;;;17.63;81.72;100231.25;4934919;28;105939;-71
2021/09/13 07:22:20;;;;;;;19.90;14.95;;;;;;;17.75;81.44;100235.72;4930421;28;106041;-70
2021/09/13 07:24:47;;;;;;;20.52;14.98;;;;;;;17.82;80.73;100235.69;4929566;28;106260;-69
2021/09/13 07:27:12;;;;;;;18.85;13.35;;;;;;;17.88;80.42;100240.22;4929348;28;105934;-69
2021/09/13 07:29:38;;;;;;;17.90;13.18;;;;;;;18.01;80.55;100244.72;4927841;28;105894;-70
2021/09/13 07:32:05;;;;;;;16.90;13.95;;;;;;;18.12;80.24;100245.09;4930848;28;105750;-69
2021/09/13 07:34:30;;;;;;;18.90;13.88;;;;;;;18.21;80.10;100244.59;4930272;28;106141;-69
2021/09/13 07:36:56;;;;;;;17.25;13.73;;;;;;;18.35;80.01;100253.38;4929792;28;106099;-70
2021/09/13 07:39:27;;;;;;;17.73;13.13;;;;;;;18.51;79.88;100254.72;4929971;28;106067;-68
2021/09/13 07:41:52;;;;;;;;;;;;;;;18.77;80.19;100272.53;4931211;28;106097;-68
2021/09/13 07:44:18;;;;;;;17.75;13.40;;;;;;;18.91;79.37;100262.44;4930703;28;106235;-66
2021/09/13 07:46:43;;;;;;;21.98;17.58;;;;;;;19.18;79.39;100259.47;4937634;28;106698;-66
2021/09/13 07:49:09;;;;;;;16.73;14.18;;;;;;;19.55;79.13;100264.81;4930319;28;106421;-67
2021/09/13 07:51:34;;;;;;;19.92;14.70;;;;;;;19.92;79.39;100261.25;4929323;28;107196;-67
2021/09/13 07:54:00;;;;;;;18.25;15.63;;;;;;;20.49;79.83;100263.47;4930061;28;106287;-67
2021/09/13 07:56:25;;;;;;;16.75;13.60;;;;;;;21.10;80.07;100258.66;4929462;28;106750;-67
2021/09/13 07:58:50;;;;;;;14.60;11.95;;;;;;;21.58;78.40;100264.78;4933344;28;106321;-68
2021/09/13 08:01:16;;;;;;;15.32;12.02;;;;;;;22.02;77.74;100257.97;4936633;28;105957;-66
2021/09/13 08:03:41;;;;;;;13.13;11.45;;;;;;;22.50;76.71;100263.94;4938914;28;106255;-65
2021/09/13 08:06:08;;;;;;;16.13;11.55;;;;;;;22.91;76.17;100265.38;4939615;28;106038;-66
2021/09/13 08:08:34;;;;;;;15.60;10.52;;;;;;;23.39;75.34;100260.31;4937422;28;106285;-68
2021/09/13 08:10:59;;;;;;;13.23;10.50;;;;;;;23.94;74.51;100266.59;4941089;28;106035;-67
2021/09/13 08:13:24;;;;;;;14.40;10.63;;;;;;;24.34;71.72;100269.94;4948996;28;106189;-66
2021/09/13 08:15:50;;;;;;;15.00;10.95;;;;;;;24.32;69.51;100270.22;4948873;28;105914;-67
2021/09/13 08:18:15;;;;;;;11.23;9.60;;;;;;;24.43;68.96;100262.13;4948633;28;106023;-68
2021/09/13 08:20:41;;;;;;;11.52;10.32;;;;;;;24.66;68.22;100267.22;4950471;28;106080;-67
2021/09/13 08:23:06;;;;;;;10.75;9.60;;;;;;;24.79;66.96;100271.38;4948648;28;106157;-68
2021/09/13 08:25:31;;;;;;;10.18;8.70;;;;;;;25.07;66.75;100268.53;4949235;28;106102;-66
2021/09/13 08:27:57;;;;;;;11.18;7.95;;;;;;;25.85;67.37;100279.47;4949654;28;105871;-69
2021/09/13 08:30:22;;;;;;;11.07;7.75;;;;;;;26.28;64.64;100271.06;4950628;28;105984;-68
2021/09/13 08:32:48;;;;;;;9.75;7.88;;;;;;;26.40;63.78;100272.72;4949674;28;106216;-69
2021/09/13 08:35:13;;;;;;;14.13;9.02;;;;;;;26.65;61.83;100275.38;4948508;28;106480;-67
2021/09/13 08:37:38;;;;;;;12.70;9.55;;;;;;;27.35;60.24;100274.69;4947424;28;105654;-68
2021/09/13 08:40:05;;;;;;;9.98;8.93;;;;;;;28.77;59.43;100277.00;4949977;28;105896;-67
2021/09/13 08:42:34;;;;;;;9.27;7.15;;;;;;;30.47;55.03;100274.69;4947021;28;106366;-66
2021/09/13 08:45:01;;;;;;;;;;;;;;;32.32;52.25;100287.31;4946418;28;106849;-68
2021/09/13 08:47:34;;;;;;;7.57;6.78;;;;;;;33.58;46.72;100287.97;4946923;28;106541;-69
2021/09/13 08:50:21;;;;;;;10.43;6.60;;;;;;;35.19;43.49;100287.03;4947239;28;106394;-70
2021/09/13 08:52:48;;;;;;;7.68;6.30;;;;;;;36.61;39.27;100285.56;4949058;28;106303;-68
2021/09/13 08:55:14;;;;;;;6.97;5.63;;;;;;;38.09;37.73;100285.34;4948596;28;106220;-69
2021/09/13 08:57:41;;;;;;;11.00;7.43;;;;;;;37.59;34.50;100292.25;4942573;28;105975;-68
2021/09/13 09:00:08;;;;;;;14.88;9.48;;;;;;;36.13;34.72;100289.78;4941196;28;106109;-68
2021/09/13 09:02:33;;;;;;;8.90;6.88;;;;;;;34.30;36.21;100286.91;4938079;28;106487;-69
2021/09/13 09:05:01;;;;;;;7.32;6.13;;;;;;;36.42;36.91;100289.69;4929150;28;106012;-67
2021/09/13 09:07:28;;;;;;;9.35;7.05;;;;;;;37.13;33.56;100294.38;4928841;28;106558;-68
2021/09/13 09:10:17;;;;;;;8.38;6.15;;;;;;;38.57;32.21;100288.22;4929462;28;106466;-68
2021/09/13 09:13:13;;;;;;;7.45;6.03;;;;;;;37.54;30.26;100295.28;4928732;28;106227;-69
2021/09/13 09:16:00;;;;;;;7.82;5.65;;;;;;;39.25;30.26;100285.53;4928951;28;106030;-68
2021/09/13 09:18:37;;;;;;;7.03;5.72;;;;;;;39.69;27.03;100293.66;4927909;28;106015;-66
2021/09/13 09:21:02;;;;;;;9.35;6.18;;;;;;;38.47;27.40;100287.97;4928953;28;105987;-68
2021/09/13 09:23:28;;;;;;;7.57;5.40;;;;;;;37.83;28.80;100298.94;4929084;28;106179;-68
2021/09/13 09:25:54;;;;;;;7.70;5.80;;;;;;;40.89;26.57;100293.91;4928999;28;106455;-68
2021/09/13 09:28:20;;;;;;;7.22;5.55;;;;;;;41.59;23.45;100295.34;4928386;28;106618;-67
2021/09/13 09:30:47;;;;;;;8.60;5.10;;;;;;;41.64;23.70;100294.22;4929232;28;105997;-69
2021/09/13 09:33:22;;;;;;;7.72;4.43;;;;;;;43.19;22.14;100292.94;4928920;28;106191;-67
2021/09/13 09:35:56;;;;;;;6.88;5.18;;;;;;;44.90;19.65;100297.81;4928837;28;106680;-69
2021/09/13 09:38:42;;;;;;;7.68;4.38;;;;;;;45.91;18.01;100289.91;4928452;28;106338;-71
2021/09/13 09:41:13;;;;;;;6.72;3.88;;;;;;;47.50;17.33;100293.38;4929484;28;105986;-70
2021/09/13 09:43:58;;;;;;;11.88;5.00;;;;;;;48.45;15.45;100295.25;4927916;28;105955;-69
2021/09/13 09:46:33;;;;;;;4.68;3.90;;;;;;;48.32;15.91;100287.81;4928026;28;106153;-69
2021/09/13 09:49:07;;;;;;;6.53;4.50;;;;;;;48.42;15.55;100290.47;4929403;28;106098;-67
2021/09/13 09:51:36;;;;;;;5.05;3.92;;;;;;;49.30;15.35;100290.53;4932520;28;105918;-69
2021/09/13 09:54:15;;;;;;;5.68;3.58;;;;;;;49.53;14.93;100291.66;4931666;28;106120;-69
2021/09/13 09:56:43;;;;;;;4.80;3.75;;;;;;;47.57;15.47;100282.00;4937195;28;106156;-69
2021/09/13 09:59:10;;;;;;;5.37;3.37;;;;;;;47.83;15.74;100279.66;4940028;28;107866;-68
2021/09/13 10:01:46;;;;;;;7.50;4.15;;;;;;;47.87;15.42;100274.75;4941071;28;106248;-69
2021/09/13 10:04:21;;;;;;;6.43;3.63;;;;;;;46.78;16.36;100273.19;4942719;28;106205;-67
2021/09/13 10:06:52;;;;;;;4.25;3.08;;;;;;;46.92;16.09;100279.91;4942373;28;106180;-71
2021/09/13 10:09:19;;;;;;;7.85;3.55;;;;;;;44.31;17.51;100276.56;4950444;28;105942;-70
2021/09/13 10:11:46;;;;;;;4.22;3.08;;;;;;;45.37;17.24;100284.50;4942773;28;105796;-70
2021/09/13 10:14:15;;;;;;;4.40;3.13;;;;;;;48.25;15.04;100280.25;4940189;28;106600;-69
2021/09/13 10:16:42;;;;;;;5.82;3.65;;;;;;;49.84;12.99;100277.25;4939730;28;106297;-69
2021/09/13 10:19:08;;;;;;;4.60;3.43;;;;;;;48.52;13.47;100277.41;4939545;28;106233;-70
2021/09/13 10:21:35;;;;;;;4.22;3.58;;;;;;;46.01;15.24;100276.97;4941314;28;106069;-69
2021/09/13 10:24:02;;;;;;;6.63;3.80;;;;;;;43.86;16.62;100273.22;4940483;28;106239;-73
2021/09/13 10:26:28;;;;;;;5.60;3.13;;;;;;;42.28;17.98;100282.16;4931335;28;106006;-69
2021/09/13 10:29:03;;;;;;;5.75;3.50;;;;;;;44.69;16.11;100268.56;4931300;28;106091;-68
2021/09/13 10:31:45;;;;;;;4.65;3.00;;;;;;;47.01;13.57;100274.56;4931780;28;105890;-68
2021/09/13 10:34:18;;;;;;;5.30;2.88;;;;;;;45.75;14.01;100276.28;4930803;28;106246;-68
2021/09/13 10:36:58;;;;;;;5.40;3.05;;;;;;;42.53;16.30;100267.59;4930520;28;105975;-68
2021/09/13 10:39:54;;;;;;;6.47;3.50;;;;;;;42.75;17.42;100269.41;4931044;28;105953;-67
2021/09/13 10:42:36;;;;;;;5.65;2.65;;;;;;;44.81;15.63;100269.34;4931681;28;106024;-67
2021/09/13 10:45:16;;;;;;;5.75;3.08;;;;;;;47.69;13.62;100266.53;4936547;28;106030;-68
2021/09/13 10:47:47;;;;;;;7.70;3.17;;;;;;;49.96;11.71;100268.88;4933695;28;106403;-68
2021/09/13 10:50:34;;;;;;;5.68;3.33;;;;;;;50.59;11.14;100274.66;4930913;28;106172;-67
2021/09/13 10:53:01;;;;;;;4.32;2.92;;;;;;;48.38;12.62;100258.66;4931991;28;106341;-67
2021/09/13 10:55:29;;;;;;;4.57;2.85;;;;;;;45.98;14.08;100274.97;4931482;28;106170;-66
2021/09/13 10:58:02;;;;;;;5.55;2.97;;;;;;;43.15;15.88;100263.28;4930010;28;106034;-66
2021/09/13 11:00:42;;;;;;;3.20;2.45;;;;;;;40.68;17.61;100263.66;4930584;28;105879;-66
2021/09/13 11:03:32;;;;;;;9.15;6.68;;;;;;;38.19;19.37;100266.53;4933586;28;106089;-66
2021/09/13 11:06:13;;;;;;;4.95;3.22;;;;;;;36.17;21.93;100268.53;4949174;28;105934;-66
2021/09/13 11:08:39;;;;;;;5.78;3.15;;;;;;;34.74;23.51;100265.44;4948839;28;106384;-66
2021/09/13 11:11:19;;;;;;;7.53;4.88;;;;;;;33.42;25.16;100277.75;4948698;28;105976;-66
2021/09/13 11:13:56;;;;;;;10.85;9.75;;;;;;;32.31;26.89;100274.66;4948818;28;106298;-65
2021/09/13 11:16:21;;;;;;;7.72;4.20;;;;;;;31.28;27.94;100271.50;4948387;28;106083;-66
2021/09/13 11:18:48;;;;;;;7.00;4.03;;;;;;;30.58;28.98;100276.16;4948509;28;106093;-66
2021/09/13 11:21:28;;;;;;;7.63;3.65;;;;;;;30.15;29.81;100268.06;4948076;28;106006;-66
2021/09/13 11:23:58;;;;;;;6.50;4.00;;;;;;;29.78;30.55;100269.72;4948840;28;106685;-67
2021/09/13 11:26:42;;;;;;;8.45;4.40;;;;;;;29.53;31.22;100268.97;4948114;28;106064;-67
2021/09/13 11:29:23;;;;;;;6.22;3.70;;;;;;;29.40;31.93;100269.69;4947893;28;106803;-66
2021/09/13 11:32:18;;;;;;;4.75;3.40;;;;;;;29.29;32.44;100266.25;4947562;28;107081;-66
2021/09/13 11:34:46;;;;;;;6.07;3.75;;;;;;;30.27;32.00;100276.66;4943699;28;106446;-66
2021/09/13 11:37:26;;;;;;;6.28;3.78;;;;;;;30.33;31.17;100269.97;4948570;28;106154;-66
2021/09/13 11:39:53;;;;;;;6.60;3.88;;;;;;;30.82;30.96;100264.97;4947725;28;106381;-66
2021/09/13 11:42:25;;;;;;;5.72;3.97;;;;;;;30.74;30.64;100268.41;4947802;28;108008;-65
2021/09/13 11:44:57;;;;;;;7.10;3.67;;;;;;;30.64;30.86;100276.88;4948877;28;106119;-66
2021/09/13 11:47:25;;;;;;;7.35;3.58;;;;;;;30.98;30.88;100261.94;4948318;28;106185;-65
2021/09/13 11:49:54;;;;;;;7.78;3.40;;;;;;;31.66;30.32;100274.00;4947905;28;106354;-66
2021/09/13 11:52:28;;;;;;;6.50;3.07;;;;;;;34.91;27.66;100272.84;4947202;28;105954;-66
2021/09/13 11:55:16;;;;;;;6.00;3.03;;;;;;;38.82;23.13;100273.34;4948269;28;106046;-66
2021/09/13 11:57:46;;;;;;;6.97;2.83;;;;;;;42.14;18.82;100266.00;4947906;28;106552;-67
2021/09/13 12:00:21;;;;;;;;;;;;;;;44.01;17.36;100263.66;4948334;28;106015;-67
2021/09/13 12:02:49;;;;;;;4.00;2.83;;;;;;;44.62;16.38;100262.94;4944826;28;105974;-69
2021/09/13 12:05:16;;;;;;;5.80;2.67;;;;;;;43.11;17.03;100261.25;4932846;28;106396;-67
2021/09/13 12:07:44;;;;;;;4.50;2.50;;;;;;;42.50;17.43;100257.16;4929178;28;106176;-67
2021/09/13 12:10:11;;;;;;;6.60;3.07;;;;;;;42.42;17.80;100256.31;4927638;28;106623;-65
2021/09/13 12:12:42;;;;;;;6.90;2.97;;;;;;;41.23;18.28;100257.72;4928374;28;106062;-66
2021/09/13 12:15:08;;;;;;;5.60;2.83;;;;;;;41.85;17.91;100264.94;4930193;28;106035;-66
2021/09/13 12:17:45;;;;;;;4.47;2.88;;;;;;;43.47;16.92;100251.44;4929230;28;106084;-65
2021/09/13 12:20:18;;;;;;;6.28;3.55;;;;;;;45.62;14.98;100259.09;4929562;28;107214;-66
2021/09/13 12:22:59;;;;;;;12.18;8.52;;;;;;;45.09;14.64;100251.66;4929513;28;105989;-65
2021/09/13 12:25:26;;;;;;;4.60;2.90;;;;;;;42.18;17.11;100263.25;4929996;28;105961;-65
2021/09/13 12:28:00;;;;;;;4.90;3.92;;;;;;;39.91;19.00;100257.88;4928920;28;106003;-65
2021/09/13 12:30:33;;;;;;;4.65;3.15;;;;;;;37.95;20.75;100250.78;4929027;28;105999;-65
2021/09/13 12:33:01;;;;;;;5.95;3.40;;;;;;;36.32;21.85;100256.84;4929178;28;107089;-65
2021/09/13 12:35:44;;;;;;;6.73;3.60;;;;;;;34.70;23.35;100254.22;4930367;28;106209;-66
2021/09/13 12:38:15;;;;;;;4.40;3.40;;;;;;;33.52;24.76;100253.41;4929501;28;105909;-66
2021/09/13 12:40:50;;;;;;;6.68;2.97;;;;;;;32.54;25.65;100256.13;4929033;28;105963;-65
2021/09/13 12:43:21;;;;;;;4.93;3.40;;;;;;;31.88;26.59;100258.63;4928882;28;106291;-66
2021/09/13 12:45:46;;;;;;;6.20;3.65;;;;;;;31.29;27.35;100259.38;4929751;28;105854;-64
2021/09/13 12:48:23;;;;;;;6.50;3.33;;;;;;;30.89;27.80;100253.56;4929436;28;105922;-65
2021/09/13 12:50:52;;;;;;;5.22;3.60;;;;;;;30.83;28.20;100254.78;4928671;28;108006;-64
2021/09/13 12:53:21;;;;;;;5.43;3.40;;;;;;;30.89;28.47;100251.63;4928971;28;107514;-65
2021/09/13 12:55:47;;;;;;;4.95;3.08;;;;;;;32.57;27.11;100254.69;4929462;28;106064;-65
2021/09/13 12:58:25;;;;;;;4.45;3.10;;;;;;;33.96;25.08;100252.63;4929573;28;105855;-65
2021/09/13 13:45:24;;;;;;;5.57;3.22;;;;;;;31.37;27.75;100214.63;5002663;28;106643;-67
2021/09/13 13:47:52;;;;;;;7.07;3.80;;;;;;;31.48;28.07;100225.38;5001297;28;106938;-67
2021/09/13 13:50:17;;;;;;;7.25;3.67;;;;;;;31.57;28.35;100223.53;5001184;28;106104;-65
2021/09/13 13:52:44;;;;;;;5.30;3.00;;;;;;;31.35;28.45;100216.84;5013851;28;106900;-66
2021/09/13 13:55:10;;;;;;;5.90;3.17;;;;;;;31.04;28.70;100216.69;5011554;28;105949;-66
2021/09/13 13:57:36;;;;;;;7.18;3.55;;;;;;;31.05;29.00;100202.63;5022285;28;106160;-67
2021/09/13 14:00:08;;;;;;;5.22;3.22;;;;;;;31.37;28.87;100214.63;5007870;28;106175;-67
2021/09/13 14:02:33;;;;;;;7.00;3.53;;;;;;;31.54;28.76;100211.19;5016778;27;106540;-66
2021/09/13 14:04:58;;;;;;;5.95;3.20;;;;;;;31.45;28.77;100206.75;5016278;28;106037;-66
2021/09/13 14:07:24;;;;;;;6.85;3.65;;;;;;;31.22;28.69;100206.69;5010145;27;105925;-66
2021/09/13 14:09:49;;;;;;;7.82;3.38;;;;;;;31.03;28.89;100193.09;5021570;28;106216;-66
2021/09/13 14:12:15;;;;;;;5.57;3.40;;;;;;;30.96;28.94;100203.63;5009850;28;105926;-65
2021/09/13 14:14:40;;;;;;;5.22;3.40;;;;;;;30.98;28.79;100202.22;5009448;28;106497;-64
2021/09/13 14:17:06;;;;;;;11.98;6.82;;;;;;;30.95;29.14;100205.59;5017843;28;106049;-65
2021/09/13 14:19:31;;;;;;;9.48;4.95;;;;;;;30.84;28.95;100204.97;5008841;28;106232;-65
2021/09/13 14:21:56;;;;;;;5.20;3.88;;;;;;;30.79;29.17;100204.28;5020949;28;105863;-66
2021/09/13 14:24:22;;;;;;;6.70;4.05;;;;;;;30.50;29.32;100200.69;5010478;28;105972;-66
2021/09/13 14:26:47;;;;;;;6.22;4.00;;;;;;;30.18;29.49;100209.75;5015146;28;106033;-66
2021/09/13 14:29:13;;;;;;;5.75;4.18;;;;;;;29.89;30.27;100197.06;5018400;28;106245;-66
2021/09/13 14:31:38;;;;;;;5.72;4.05;;;;;;;29.62;30.37;100201.34;5007544;28;106879;-66
2021/09/13 14:34:04;;;;;;;8.32;5.00;;;;;;;29.27;30.50;100200.72;5020661;27;106100;-66
2021/09/13 14:36:29;;;;;;;5.63;4.25;;;;;;;28.85;31.06;100205.06;5012397;28;106506;-66
2021/09/13 14:38:55;;;;;;;5.22;3.92;;;;;;;28.64;31.79;100199.84;5013349;28;106245;-66
2021/09/13 14:41:20;;;;;;;6.55;4.00;;;;;;;28.42;32.15;100202.22;5018592;28;106012;-65
2021/09/13 14:43:45;;;;;;;7.22;4.40;;;;;;;28.25;32.34;100202.69;5006960;28;106092;-65
2021/09/13 14:46:11;;;;;;;6.13;4.25;;;;;;;28.00;32.65;100207.28;5025004;28;105892;-64
2021/09/13 14:48:36;;;;;;;6.25;4.50;;;;;;;27.93;33.11;100202.09;5024827;28;106223;-63
2021/09/13 14:51:01;;;;;;;7.80;4.80;;;;;;;27.92;33.33;100203.19;5024407;27;105986;-63
2021/09/13 14:53:27;;;;;;;8.18;4.53;;;;;;;27.90;33.84;100197.22;5024133;27;105844;-66
2021/09/13 14:55:52;;;;;;;6.45;4.68;;;;;;;27.84;33.82;100199.16;5016275;28;105925;-66
2021/09/13 14:58:18;;;;;;;5.10;4.10;;;;;;;27.67;33.77;100205.03;5010936;28;106072;-65
2021/09/13 15:00:43;;;;;;;8.88;4.63;;;;;;;27.58;34.33;100201.25;5010939;28;106009;-65
2021/09/13 15:03:08;;;;;;;7.63;4.78;;;;;;;27.49;34.46;100202.97;5010578;28;106427;-65
2021/09/13 15:05:34;;;;;;;14.73;10.60;;;;;;;27.39;34.58;100198.34;5011646;28;105900;-65
2021/09/13 15:07:59;;;;;;;24.70;20.38;;;;;;;27.30;34.64;100200.84;5010281;28;106262;-64
2021/09/13 15:10:24;;;;;;;8.05;4.82;;;;;;;27.27;34.69;100206.91;5009457;28;113880;-65
2021/09/13 15:12:50;;;;;;;8.32;4.40;;;;;;;27.21;34.98;100197.06;5009879;28;105855;-65
2021/09/13 15:15:15;;;;;;;5.28;4.35;;;;;;;27.12;35.02;100193.28;5011272;28;105860;-65
2021/09/13 15:17:42;;;;;;;13.75;4.85;;;;;;;26.97;34.91;100200.47;5009102;28;106095;-65
2021/09/13 15:20:09;;;;;;;5.68;4.50;;;;;;;26.85;35.25;100194.50;4981885;28;106034;-66
2021/09/13 15:22:36;;;;;;;6.18;4.60;;;;;;;26.78;35.34;100191.25;4977787;28;107273;-67
2021/09/13 15:25:02;;;;;;;6.88;4.43;;;;;;;26.64;35.41;100191.81;4988834;28;106128;-65
2021/09/13 15:27:27;;;;;;;5.80;4.97;;;;;;;26.41;35.75;100184.19;4994042;28;106387;-65
2021/09/13 15:29:53;;;;;;;6.60;4.63;;;;;;;26.20;36.00;100195.16;4983942;28;106117;-69
2021/09/13 15:32:18;;;;;;;8.05;5.10;;;;;;;26.07;36.62;100182.91;4984774;28;106534;-63
2021/09/13 15:34:43;;;;;;;7.95;5.18;;;;;;;26.04;36.96;100185.34;4971094;28;106374;-66
2021/09/13 15:37:09;;;;;;;7.40;4.68;;;;;;;25.89;37.20;100189.69;4970729;28;106265;-69
2021/09/13 15:39:34;;;;;;;7.57;4.75;;;;;;;25.70;37.39;100188.56;4969965;28;111415;-66
2021/09/13 15:41:59;;;;;;;7.15;4.35;;;;;;;25.58;37.83;100186.94;4969932;28;106367;-68
2021/09/13 15:44:25;;;;;;;7.93;5.43;;;;;;;25.47;38.20;100183.38;4969903;28;106108;-66
2021/09/13 15:46:54;;;;;;;7.32;4.90;;;;;;;25.40;38.24;100190.19;4970585;28;106117;-65
2021/09/13 15:49:20;;;;;;;7.75;5.25;;;;;;;25.33;38.74;100191.25;4969920;28;106625;-65
2021/09/13 15:51:45;;;;;;;9.95;5.45;;;;;;;25.28;38.88;100183.03;4977656;28;109018;-65
2021/09/13 15:54:11;;;;;;;9.10;5.60;;;;;;;25.21;39.26;100185.19;4980380;28;106017;-66
2021/09/13 15:56:36;;;;;;;6.65;4.68;;;;;;;25.20;39.43;100186.28;4978882;28;105924;-65
2021/09/13 15:59:03;;;;;;;9.27;5.22;;;;;;;25.19;39.65;100187.34;4979995;28;113897;-68
2021/09/13 16:01:29;;;;;;;7.03;4.90;;;;;;;25.04;39.95;100190.84;4976787;28;106106;-66
2021/09/13 16:03:54;;;;;;;7.32;4.60;;;;;;;24.88;40.08;100194.59;4979671;28;105997;-67
2021/09/13 16:06:20;;;;;;;7.43;5.22;;;;;;;24.75;40.79;100191.28;4979710;28;105861;-68
2021/09/13 16:08:45;;;;;;;6.93;5.38;;;;;;;24.66;41.32;100190.97;4977390;28;106701;-67
2021/09/13 16:11:10;;;;;;;7.20;5.25;;;;;;;24.56;41.16;100198.22;4979541;28;105910;-67
2021/09/13 16:13:36;;;;;;;8.95;5.80;;;;;;;24.42;41.79;100186.97;4980277;28;106018;-68
2021/09/13 16:16:01;;;;;;;8.45;5.57;;;;;;;24.26;41.95;100197.78;4978396;28;106500;-68
2021/09/13 16:18:27;;;;;;;11.25;5.93;;;;;;;24.09;42.22;100195.19;4979948;28;106393;-68
2021/09/13 16:20:54;;;;;;;10.30;5.13;;;;;;;23.94;42.88;100193.16;4978637;28;106086;-67
2021/09/13 16:23:20;;;;;;;6.85;5.32;;;;;;;23.76;43.14;100204.41;4978727;28;106015;-67
2021/09/13 16:25:49;;;;;;;6.32;4.32;;;;;;;23.61;43.48;100205.88;4980205;28;106253;-68
2021/09/13 16:28:14;;;;;;;7.17;4.93;;;;;;;23.47;44.00;100207.38;4987221;28;106792;-68
2021/09/13 16:30:40;;;;;;;7.07;4.82;;;;;;;23.29;44.17;100203.09;4989067;28;106163;-67
2021/09/13 16:33:05;;;;;;;7.72;5.70;;;;;;;23.11;44.67;100209.66;4983485;28;105908;-68
2021/09/13 16:35:30;;;;;;;7.88;5.43;;;;;;;22.95;45.06;100212.19;4977483;28;106154;-68
2021/09/13 16:37:56;;;;;;;7.05;5.63;;;;;;;22.78;45.30;100209.50;4979569;28;106471;-68
2021/09/13 16:40:21;;;;;;;8.88;5.82;;;;;;;22.64;45.49;100214.47;4977891;28;106148;-67
2021/09/13 16:42:48;;;;;;;7.30;6.00;;;;;;;22.47;45.61;100216.38;4979283;28;106239;-66
2021/09/13 16:45:13;;;;;;;8.73;5.95;;;;;;;22.31;46.00;100224.28;4979345;28;106292;-66
2021/09/13 16:47:38;;;;;;;7.47;5.35;;;;;;;22.18;46.25;100213.75;4977474;28;106083;-67
2021/09/13 16:50:05;;;;;;;10.15;5.57;;;;;;;22.03;46.67;100219.75;4977945;28;108485;-67
2021/09/13 16:52:31;;;;;;;9.43;5.85;;;;;;;21.90;47.06;100220.91;4980209;28;106019;-68
2021/09/13 16:54:57;;;;;;;8.50;5.60;;;;;;;21.77;47.39;100221.19;4977570;28;106220;-68
2021/09/13 16:57:22;;;;;;;7.88;5.53;;;;;;;21.69;47.71;100216.19;4971001;28;105944;-69
2021/09/13 16:59:47;;;;;;;8.18;5.15;;;;;;;21.61;47.90;100215.50;4968961;28;106382;-68
2021/09/13 17:02:13;;;;;;;6.43;5.35;;;;;;;21.51;47.99;100214.47;4969976;28;105971;-67
2021/09/13 17:04:38;;;;;;;7.05;5.38;;;;;;;21.38;48.36;100221.81;4969178;28;106395;-67